sensor_id;sensor_type;location;lat;lon;timestamp;temperature;humidity
2729;DHT22;1372;47.956;7.830;2023-05-29T00:00:19;13.50;99.90
2729;DHT22;1372;47.956;7.830;2023-05-29T00:02:49;13.50;99.90
2729;DHT22;1372;47.956;7.830;2023-05-29T00:05:19;13.50;99.90
2729;DHT22;1372;47.956;7.830;2023-05-29T00:07:48;13.40;99.90
2729;DHT22;1372;47.956;7.830;2023-05-29T00:10:17;13.30;99.90
2729;DHT22;1372;47.956;7.830;2023-05-29T00:12:46;13.40;99.90
2729;DHT22;1372;47.956;7.830;2023-05-29T00:15:15;13.30;99.90
2729;DHT22;1372;47.956;7.830;2023-05-29T00:17:45;13.30;99.90
2729;DHT22;1372;47.956;7.830;2023-05-29T00:20:14;13.20;99.90
2729;DHT22;1372;47.956;7.830;2023-05-29T00:22:43;13.20;99.90
2729;DHT22;1372;47.956;7.830;2023-05-29T00:25:11;13.20;99.90
2729;DHT22;1372;47.956;7.830;2023-05-29T00:27:41;13.20;99.90
2729;DHT22;1372;47.956;7.830;2023-05-29T00:30:10;13.30;99.90
2729;DHT22;1372;47.956;7.830;2023-05-29T00:32:39;13.30;99.90
2729;DHT22;1372;47.956;7.830;2023-05-29T00:35:10;13.10;99.90
2729;DHT22;1372;47.956;7.830;2023-05-29T00:37:39;13.10;99.90
2729;DHT22;1372;47.956;7.830;2023-05-29T00:40:10;13.10;99.90
2729;DHT22;1372;47.956;7.830;2023-05-29T00:42:39;13.10;99.90
2729;DHT22;1372;47.956;7.830;2023-05-29T00:45:09;13.10;99.90
2729;DHT22;1372;47.956;7.830;2023-05-29T00:47:40;12.90;99.90
2729;DHT22;1372;47.956;7.830;2023-05-29T00:50:12;13.00;99.90
2729;DHT22;1372;47.956;7.830;2023-05-29T00:52:43;12.80;99.90
2729;DHT22;1372;47.956;7.830;2023-05-29T00:55:13;12.90;99.90
2729;DHT22;1372;47.956;7.830;2023-05-29T00:57:42;12.80;99.90
2729;DHT22;1372;47.956;7.830;2023-05-29T01:00:16;12.80;99.90
2729;DHT22;1372;47.956;7.830;2023-05-29T01:02:47;12.80;99.90
2729;DHT22;1372;47.956;7.830;2023-05-29T01:05:20;12.80;99.90
2729;DHT22;1372;47.956;7.830;2023-05-29T01:07:49;12.80;99.90
2729;DHT22;1372;47.956;7.830;2023-05-29T01:10:18;12.80;99.90
2729;DHT22;1372;47.956;7.830;2023-05-29T01:12:50;12.70;99.90
2729;DHT22;1372;47.956;7.830;2023-05-29T01:15:31;12.60;99.90
2729;DHT22;1372;47.956;7.830;2023-05-29T01:18:19;12.50;99.90
2729;DHT22;1372;47.956;7.830;2023-05-29T01:21:02;12.50;99.90
2729;DHT22;1372;47.956;7.830;2023-05-29T01:24:05;12.50;99.90
2729;DHT22;1372;47.956;7.830;2023-05-29T01:26:47;12.40;99.90
2729;DHT22;1372;47.956;7.830;2023-05-29T01:29:19;12.40;99.90
2729;DHT22;1372;47.956;7.830;2023-05-29T01:31:51;12.40;99.90
2729;DHT22;1372;47.956;7.830;2023-05-29T01:34:21;12.50;99.90
2729;DHT22;1372;47.956;7.830;2023-05-29T01:36:49;12.40;99.90
2729;DHT22;1372;47.956;7.830;2023-05-29T01:39:19;12.30;99.90
2729;DHT22;1372;47.956;7.830;2023-05-29T01:41:50;12.30;99.90
2729;DHT22;1372;47.956;7.830;2023-05-29T01:44:19;12.30;99.90
2729;DHT22;1372;47.956;7.830;2023-05-29T01:46:49;12.30;99.90
2729;DHT22;1372;47.956;7.830;2023-05-29T01:49:19;12.20;99.90
2729;DHT22;1372;47.956;7.830;2023-05-29T01:51:48;12.30;99.90
2729;DHT22;1372;47.956;7.830;2023-05-29T01:54:17;12.20;99.90
2729;DHT22;1372;47.956;7.830;2023-05-29T01:56:46;12.20;99.90
2729;DHT22;1372;47.956;7.830;2023-05-29T01:59:17;12.20;99.90
2729;DHT22;1372;47.956;7.830;2023-05-29T02:01:47;12.20;99.90
2729;DHT22;1372;47.956;7.830;2023-05-29T02:04:16;12.20;99.90
2729;DHT22;1372;47.956;7.830;2023-05-29T02:06:45;12.20;99.90
2729;DHT22;1372;47.956;7.830;2023-05-29T02:09:15;12.20;99.90
2729;DHT22;1372;47.956;7.830;2023-05-29T02:11:45;12.20;99.90
2729;DHT22;1372;47.956;7.830;2023-05-29T02:14:15;12.10;99.90
2729;DHT22;1372;47.956;7.830;2023-05-29T02:16:43;12.10;99.90
2729;DHT22;1372;47.956;7.830;2023-05-29T02:19:12;12.10;99.90
2729;DHT22;1372;47.956;7.830;2023-05-29T02:21:41;12.00;99.90
2729;DHT22;1372;47.956;7.830;2023-05-29T02:24:10;12.10;99.90
2729;DHT22;1372;47.956;7.830;2023-05-29T02:26:40;11.90;99.90
2729;DHT22;1372;47.956;7.830;2023-05-29T02:29:12;11.90;99.90
2729;DHT22;1372;47.956;7.830;2023-05-29T02:31:42;12.00;99.90
2729;DHT22;1372;47.956;7.830;2023-05-29T02:34:11;11.90;99.90
2729;DHT22;1372;47.956;7.830;2023-05-29T02:36:40;11.90;99.90
2729;DHT22;1372;47.956;7.830;2023-05-29T02:39:09;11.80;99.90
2729;DHT22;1372;47.956;7.830;2023-05-29T02:41:38;11.70;99.90
2729;DHT22;1372;47.956;7.830;2023-05-29T02:44:07;11.90;99.90
2729;DHT22;1372;47.956;7.830;2023-05-29T02:46:36;11.80;99.90
2729;DHT22;1372;47.956;7.830;2023-05-29T02:49:08;11.70;99.90
2729;DHT22;1372;47.956;7.830;2023-05-29T02:51:37;11.70;99.90
2729;DHT22;1372;47.956;7.830;2023-05-29T02:54:05;11.80;99.90
2729;DHT22;1372;47.956;7.830;2023-05-29T02:56:34;11.70;99.90
2729;DHT22;1372;47.956;7.830;2023-05-29T02:59:03;11.60;99.90
2729;DHT22;1372;47.956;7.830;2023-05-29T03:01:31;11.50;99.90
2729;DHT22;1372;47.956;7.830;2023-05-29T03:04:01;11.60;99.90
2729;DHT22;1372;47.956;7.830;2023-05-29T03:06:31;11.50;99.90
2729;DHT22;1372;47.956;7.830;2023-05-29T03:09:00;11.30;99.90
2729;DHT22;1372;47.956;7.830;2023-05-29T03:11:29;11.40;99.90
2729;DHT22;1372;47.956;7.830;2023-05-29T03:13:58;11.40;99.90
2729;DHT22;1372;47.956;7.830;2023-05-29T03:16:27;11.30;99.90
2729;DHT22;1372;47.956;7.830;2023-05-29T03:18:57;11.30;99.90
2729;DHT22;1372;47.956;7.830;2023-05-29T03:21:26;11.20;99.90
2729;DHT22;1372;47.956;7.830;2023-05-29T03:23:56;11.40;99.90
2729;DHT22;1372;47.956;7.830;2023-05-29T03:26:27;11.40;99.90
2729;DHT22;1372;47.956;7.830;2023-05-29T03:28:56;11.40;99.90
2729;DHT22;1372;47.956;7.830;2023-05-29T03:31:27;11.30;99.90
2729;DHT22;1372;47.956;7.830;2023-05-29T03:33:56;11.40;99.90
2729;DHT22;1372;47.956;7.830;2023-05-29T03:36:26;11.40;99.90
2729;DHT22;1372;47.956;7.830;2023-05-29T03:38:56;11.30;99.90
2729;DHT22;1372;47.956;7.830;2023-05-29T03:41:28;11.20;99.90
2729;DHT22;1372;47.956;7.830;2023-05-29T03:43:57;11.40;99.90
2729;DHT22;1372;47.956;7.830;2023-05-29T03:46:26;11.30;99.90
2729;DHT22;1372;47.956;7.830;2023-05-29T03:48:57;11.30;99.90
2729;DHT22;1372;47.956;7.830;2023-05-29T03:51:26;11.30;99.90
2729;DHT22;1372;47.956;7.830;2023-05-29T03:53:58;11.50;99.90
2729;DHT22;1372;47.956;7.830;2023-05-29T03:56:27;11.50;99.90
2729;DHT22;1372;47.956;7.830;2023-05-29T03:58:57;11.30;99.90
2729;DHT22;1372;47.956;7.830;2023-05-29T04:01:26;11.50;99.90
2729;DHT22;1372;47.956;7.830;2023-05-29T04:03:55;11.40;99.90
2729;DHT22;1372;47.956;7.830;2023-05-29T04:06:24;11.30;99.90
2729;DHT22;1372;47.956;7.830;2023-05-29T04:08:56;11.30;99.90
2729;DHT22;1372;47.956;7.830;2023-05-29T04:11:26;11.20;99.90
2729;DHT22;1372;47.956;7.830;2023-05-29T04:13:55;11.20;99.90
2729;DHT22;1372;47.956;7.830;2023-05-29T04:16:23;11.30;99.90
2729;DHT22;1372;47.956;7.830;2023-05-29T04:18:52;11.40;99.90
2729;DHT22;1372;47.956;7.830;2023-05-29T04:21:21;11.20;99.90
2729;DHT22;1372;47.956;7.830;2023-05-29T04:23:50;11.20;99.90
2729;DHT22;1372;47.956;7.830;2023-05-29T04:26:22;11.30;99.90
2729;DHT22;1372;47.956;7.830;2023-05-29T04:28:52;11.30;99.90
2729;DHT22;1372;47.956;7.830;2023-05-29T04:31:24;11.30;99.90
2729;DHT22;1372;47.956;7.830;2023-05-29T04:33:53;11.30;99.90
2729;DHT22;1372;47.956;7.830;2023-05-29T04:36:26;11.40;99.90
2729;DHT22;1372;47.956;7.830;2023-05-29T04:38:54;11.40;99.90
2729;DHT22;1372;47.956;7.830;2023-05-29T04:41:25;11.50;99.90
2729;DHT22;1372;47.956;7.830;2023-05-29T04:43:58;11.30;99.90
2729;DHT22;1372;47.956;7.830;2023-05-29T04:46:27;11.30;99.90
2729;DHT22;1372;47.956;7.830;2023-05-29T04:48:56;11.50;99.90
2729;DHT22;1372;47.956;7.830;2023-05-29T04:51:28;11.60;99.90
2729;DHT22;1372;47.956;7.830;2023-05-29T04:53:57;11.60;99.90
2729;DHT22;1372;47.956;7.830;2023-05-29T04:56:27;11.70;99.90
2729;DHT22;1372;47.956;7.830;2023-05-29T04:58:56;11.70;99.90
2729;DHT22;1372;47.956;7.830;2023-05-29T05:01:25;11.70;99.90
2729;DHT22;1372;47.956;7.830;2023-05-29T05:03:54;11.70;99.90
2729;DHT22;1372;47.956;7.830;2023-05-29T05:06:23;11.80;99.90
2729;DHT22;1372;47.956;7.830;2023-05-29T05:08:53;11.90;99.90
2729;DHT22;1372;47.956;7.830;2023-05-29T05:11:23;12.00;99.90
2729;DHT22;1372;47.956;7.830;2023-05-29T05:13:53;12.20;99.90
2729;DHT22;1372;47.956;7.830;2023-05-29T05:16:22;12.30;99.90
2729;DHT22;1372;47.956;7.830;2023-05-29T05:18:51;12.30;99.90
2729;DHT22;1372;47.956;7.830;2023-05-29T05:21:20;12.30;99.90
2729;DHT22;1372;47.956;7.830;2023-05-29T05:23:49;12.40;99.90
2729;DHT22;1372;47.956;7.830;2023-05-29T05:26:24;12.40;99.90
2729;DHT22;1372;47.956;7.830;2023-05-29T05:28:55;12.30;99.90
2729;DHT22;1372;47.956;7.830;2023-05-29T05:31:25;12.40;99.90
2729;DHT22;1372;47.956;7.830;2023-05-29T05:33:54;12.50;99.90
2729;DHT22;1372;47.956;7.830;2023-05-29T05:36:23;12.50;99.90
2729;DHT22;1372;47.956;7.830;2023-05-29T05:38:52;12.50;99.90
2729;DHT22;1372;47.956;7.830;2023-05-29T05:41:20;12.60;99.90
2729;DHT22;1372;47.956;7.830;2023-05-29T05:43:49;12.70;99.90
2729;DHT22;1372;47.956;7.830;2023-05-29T05:46:19;12.80;99.90
2729;DHT22;1372;47.956;7.830;2023-05-29T05:48:50;12.90;99.90
2729;DHT22;1372;47.956;7.830;2023-05-29T05:51:18;13.00;99.90
2729;DHT22;1372;47.956;7.830;2023-05-29T05:53:47;13.10;99.90
2729;DHT22;1372;47.956;7.830;2023-05-29T05:56:16;13.20;99.90
2729;DHT22;1372;47.956;7.830;2023-05-29T05:58:48;13.40;99.90
2729;DHT22;1372;47.956;7.830;2023-05-29T06:01:21;13.50;99.90
2729;DHT22;1372;47.956;7.830;2023-05-29T06:03:50;13.60;99.90
2729;DHT22;1372;47.956;7.830;2023-05-29T06:06:19;13.60;99.90
2729;DHT22;1372;47.956;7.830;2023-05-29T06:08:48;13.60;99.90
2729;DHT22;1372;47.956;7.830;2023-05-29T06:11:17;13.80;99.90
2729;DHT22;1372;47.956;7.830;2023-05-29T06:13:46;13.90;99.90
2729;DHT22;1372;47.956;7.830;2023-05-29T06:16:14;14.00;99.90
2729;DHT22;1372;47.956;7.830;2023-05-29T06:18:45;14.20;99.90
2729;DHT22;1372;47.956;7.830;2023-05-29T06:21:13;14.20;99.90
2729;DHT22;1372;47.956;7.830;2023-05-29T06:23:43;14.40;99.90
2729;DHT22;1372;47.956;7.830;2023-05-29T06:26:12;14.50;99.90
2729;DHT22;1372;47.956;7.830;2023-05-29T06:28:42;14.60;99.90
2729;DHT22;1372;47.956;7.830;2023-05-29T06:31:11;14.60;99.90
2729;DHT22;1372;47.956;7.830;2023-05-29T06:33:47;14.70;99.90
2729;DHT22;1372;47.956;7.830;2023-05-29T06:36:18;14.80;99.90
2729;DHT22;1372;47.956;7.830;2023-05-29T06:38:47;14.90;99.90
2729;DHT22;1372;47.956;7.830;2023-05-29T06:41:17;14.90;99.90
2729;DHT22;1372;47.956;7.830;2023-05-29T06:43:47;15.00;99.90
2729;DHT22;1372;47.956;7.830;2023-05-29T06:46:16;15.00;99.90
2729;DHT22;1372;47.956;7.830;2023-05-29T06:48:46;15.10;99.90
2729;DHT22;1372;47.956;7.830;2023-05-29T06:51:17;15.10;99.90
2729;DHT22;1372;47.956;7.830;2023-05-29T06:53:48;15.20;99.90
2729;DHT22;1372;47.956;7.830;2023-05-29T06:56:17;15.30;99.90
2729;DHT22;1372;47.956;7.830;2023-05-29T06:58:46;15.40;99.90
2729;DHT22;1372;47.956;7.830;2023-05-29T07:01:15;15.50;99.90
2729;DHT22;1372;47.956;7.830;2023-05-29T07:03:45;15.50;99.90
2729;DHT22;1372;47.956;7.830;2023-05-29T07:06:16;15.60;99.90
2729;DHT22;1372;47.956;7.830;2023-05-29T07:08:45;15.70;99.90
2729;DHT22;1372;47.956;7.830;2023-05-29T07:11:14;15.70;99.90
2729;DHT22;1372;47.956;7.830;2023-05-29T07:13:43;15.80;99.90
2729;DHT22;1372;47.956;7.830;2023-05-29T07:16:11;15.90;99.90
2729;DHT22;1372;47.956;7.830;2023-05-29T07:18:52;15.90;99.90
2729;DHT22;1372;47.956;7.830;2023-05-29T07:21:21;16.00;99.90
2729;DHT22;1372;47.956;7.830;2023-05-29T07:23:50;16.10;99.90
2729;DHT22;1372;47.956;7.830;2023-05-29T07:26:20;16.10;99.90
2729;DHT22;1372;47.956;7.830;2023-05-29T07:28:52;16.10;99.90
2729;DHT22;1372;47.956;7.830;2023-05-29T07:31:21;16.20;99.90
2729;DHT22;1372;47.956;7.830;2023-05-29T07:33:52;16.40;99.90
2729;DHT22;1372;47.956;7.830;2023-05-29T07:36:21;16.50;99.90
2729;DHT22;1372;47.956;7.830;2023-05-29T07:38:50;16.60;99.90
2729;DHT22;1372;47.956;7.830;2023-05-29T07:41:20;16.70;99.90
2729;DHT22;1372;47.956;7.830;2023-05-29T07:43:51;16.80;99.90
2729;DHT22;1372;47.956;7.830;2023-05-29T07:46:25;16.80;99.90
2729;DHT22;1372;47.956;7.830;2023-05-29T07:48:56;17.00;99.90
2729;DHT22;1372;47.956;7.830;2023-05-29T07:51:24;17.00;99.90
2729;DHT22;1372;47.956;7.830;2023-05-29T07:53:53;17.00;99.90
2729;DHT22;1372;47.956;7.830;2023-05-29T07:56:22;17.10;99.90
2729;DHT22;1372;47.956;7.830;2023-05-29T07:58:52;17.10;99.90
2729;DHT22;1372;47.956;7.830;2023-05-29T08:01:22;17.20;99.90
2729;DHT22;1372;47.956;7.830;2023-05-29T08:03:51;17.30;99.90
2729;DHT22;1372;47.956;7.830;2023-05-29T08:06:21;17.40;99.90
2729;DHT22;1372;47.956;7.830;2023-05-29T08:08:51;17.50;99.90
2729;DHT22;1372;47.956;7.830;2023-05-29T08:11:21;17.60;99.90
2729;DHT22;1372;47.956;7.830;2023-05-29T08:13:50;17.70;99.90
2729;DHT22;1372;47.956;7.830;2023-05-29T08:16:19;17.80;99.90
2729;DHT22;1372;47.956;7.830;2023-05-29T08:18:49;17.90;99.90
2729;DHT22;1372;47.956;7.830;2023-05-29T08:21:18;18.00;99.90
2729;DHT22;1372;47.956;7.830;2023-05-29T08:23:48;18.10;99.90
2729;DHT22;1372;47.956;7.830;2023-05-29T08:26:19;18.10;99.90
2729;DHT22;1372;47.956;7.830;2023-05-29T08:28:49;18.10;99.90
2729;DHT22;1372;47.956;7.830;2023-05-29T08:31:18;18.40;99.90
2729;DHT22;1372;47.956;7.830;2023-05-29T08:33:47;18.50;99.90
2729;DHT22;1372;47.956;7.830;2023-05-29T08:36:16;18.60;99.90
2729;DHT22;1372;47.956;7.830;2023-05-29T08:38:49;18.60;99.90
2729;DHT22;1372;47.956;7.830;2023-05-29T08:41:24;18.60;99.90
2729;DHT22;1372;47.956;7.830;2023-05-29T08:43:54;18.80;99.90
2729;DHT22;1372;47.956;7.830;2023-05-29T08:46:24;18.90;99.90
2729;DHT22;1372;47.956;7.830;2023-05-29T08:48:58;18.90;99.90
2729;DHT22;1372;47.956;7.830;2023-05-29T08:51:32;18.90;99.90
2729;DHT22;1372;47.956;7.830;2023-05-29T08:54:08;18.90;99.90
2729;DHT22;1372;47.956;7.830;2023-05-29T08:56:37;18.90;99.90
2729;DHT22;1372;47.956;7.830;2023-05-29T08:59:07;19.00;99.90
2729;DHT22;1372;47.956;7.830;2023-05-29T09:01:37;19.10;99.90
2729;DHT22;1372;47.956;7.830;2023-05-29T09:04:07;19.10;99.90
2729;DHT22;1372;47.956;7.830;2023-05-29T09:06:38;19.20;99.90
2729;DHT22;1372;47.956;7.830;2023-05-29T09:09:12;19.20;99.90
2729;DHT22;1372;47.956;7.830;2023-05-29T09:11:43;19.30;99.90
2729;DHT22;1372;47.956;7.830;2023-05-29T09:14:37;19.30;99.90
2729;DHT22;1372;47.956;7.830;2023-05-29T09:17:09;19.50;99.90
2729;DHT22;1372;47.956;7.830;2023-05-29T09:19:39;19.70;99.90
2729;DHT22;1372;47.956;7.830;2023-05-29T09:22:11;19.70;99.90
2729;DHT22;1372;47.956;7.830;2023-05-29T09:24:47;19.80;99.90
2729;DHT22;1372;47.956;7.830;2023-05-29T09:27:18;19.80;99.90
2729;DHT22;1372;47.956;7.830;2023-05-29T09:29:47;19.80;99.90
2729;DHT22;1372;47.956;7.830;2023-05-29T09:32:17;19.90;99.90
2729;DHT22;1372;47.956;7.830;2023-05-29T09:34:46;20.00;99.90
2729;DHT22;1372;47.956;7.830;2023-05-29T09:37:15;20.10;99.90
2729;DHT22;1372;47.956;7.830;2023-05-29T09:39:51;20.20;99.90
2729;DHT22;1372;47.956;7.830;2023-05-29T09:42:20;20.20;99.90
2729;DHT22;1372;47.956;7.830;2023-05-29T09:44:53;20.30;99.90
2729;DHT22;1372;47.956;7.830;2023-05-29T09:47:33;20.30;99.90
2729;DHT22;1372;47.956;7.830;2023-05-29T09:50:03;20.40;99.90
2729;DHT22;1372;47.956;7.830;2023-05-29T09:52:36;20.50;99.90
2729;DHT22;1372;47.956;7.830;2023-05-29T09:55:09;20.60;99.90
2729;DHT22;1372;47.956;7.830;2023-05-29T09:57:38;20.70;99.90
2729;DHT22;1372;47.956;7.830;2023-05-29T10:00:10;20.70;99.90
2729;DHT22;1372;47.956;7.830;2023-05-29T10:02:40;20.80;99.90
2729;DHT22;1372;47.956;7.830;2023-05-29T10:05:10;20.90;99.90
2729;DHT22;1372;47.956;7.830;2023-05-29T10:07:46;21.10;99.90
2729;DHT22;1372;47.956;7.830;2023-05-29T10:10:18;21.20;99.90
2729;DHT22;1372;47.956;7.830;2023-05-29T10:12:48;21.20;99.90
2729;DHT22;1372;47.956;7.830;2023-05-29T10:15:22;21.40;99.90
2729;DHT22;1372;47.956;7.830;2023-05-29T10:18:01;21.60;99.90
2729;DHT22;1372;47.956;7.830;2023-05-29T10:20:33;21.80;99.90
2729;DHT22;1372;47.956;7.830;2023-05-29T10:23:04;21.90;99.90
2729;DHT22;1372;47.956;7.830;2023-05-29T10:25:36;21.90;99.90
2729;DHT22;1372;47.956;7.830;2023-05-29T10:28:07;22.00;99.90
2729;DHT22;1372;47.956;7.830;2023-05-29T10:30:38;22.10;99.90
2729;DHT22;1372;47.956;7.830;2023-05-29T10:33:37;22.20;99.90
2729;DHT22;1372;47.956;7.830;2023-05-29T10:36:18;22.30;99.90
2729;DHT22;1372;47.956;7.830;2023-05-29T10:38:49;22.60;99.90
2729;DHT22;1372;47.956;7.830;2023-05-29T10:41:33;22.60;99.90
2729;DHT22;1372;47.956;7.830;2023-05-29T10:47:12;22.70;99.90
2729;DHT22;1372;47.956;7.830;2023-05-29T10:49:51;22.70;99.90
2729;DHT22;1372;47.956;7.830;2023-05-29T10:52:20;22.80;99.90
2729;DHT22;1372;47.956;7.830;2023-05-29T10:54:52;23.00;99.90
2729;DHT22;1372;47.956;7.830;2023-05-29T10:57:23;23.10;99.90
2729;DHT22;1372;47.956;7.830;2023-05-29T11:00:04;23.10;99.90
2729;DHT22;1372;47.956;7.830;2023-05-29T11:02:40;23.10;99.90
2729;DHT22;1372;47.956;7.830;2023-05-29T11:05:25;23.20;99.90
2729;DHT22;1372;47.956;7.830;2023-05-29T11:07:58;23.20;99.90
2729;DHT22;1372;47.956;7.830;2023-05-29T11:10:43;23.20;99.90
2729;DHT22;1372;47.956;7.830;2023-05-29T11:13:25;23.20;99.90
2729;DHT22;1372;47.956;7.830;2023-05-29T11:16:13;23.50;99.90
2729;DHT22;1372;47.956;7.830;2023-05-29T11:18:48;23.60;99.90
2729;DHT22;1372;47.956;7.830;2023-05-29T11:21:31;23.60;99.90
2729;DHT22;1372;47.956;7.830;2023-05-29T11:24:04;23.60;99.90
2729;DHT22;1372;47.956;7.830;2023-05-29T11:26:37;23.60;99.90
2729;DHT22;1372;47.956;7.830;2023-05-29T11:29:10;23.70;99.90
2729;DHT22;1372;47.956;7.830;2023-05-29T11:31:43;23.70;99.90
2729;DHT22;1372;47.956;7.830;2023-05-29T11:34:14;23.80;99.90
2729;DHT22;1372;47.956;7.830;2023-05-29T11:36:44;23.90;99.90
2729;DHT22;1372;47.956;7.830;2023-05-29T11:39:18;23.90;99.90
2729;DHT22;1372;47.956;7.830;2023-05-29T11:41:50;24.00;99.90
2729;DHT22;1372;47.956;7.830;2023-05-29T11:44:24;24.00;99.90
2729;DHT22;1372;47.956;7.830;2023-05-29T11:47:00;24.10;99.90
2729;DHT22;1372;47.956;7.830;2023-05-29T11:49:31;24.20;99.90
2729;DHT22;1372;47.956;7.830;2023-05-29T11:52:08;24.30;99.90
2729;DHT22;1372;47.956;7.830;2023-05-29T11:54:42;24.30;99.90
2729;DHT22;1372;47.956;7.830;2023-05-29T11:57:18;24.40;99.90
2729;DHT22;1372;47.956;7.830;2023-05-29T11:59:51;24.40;99.90
2729;DHT22;1372;47.956;7.830;2023-05-29T12:02:26;24.50;99.90
2729;DHT22;1372;47.956;7.830;2023-05-29T12:05:02;24.50;99.90
2729;DHT22;1372;47.956;7.830;2023-05-29T12:07:31;24.50;99.90
2729;DHT22;1372;47.956;7.830;2023-05-29T12:10:09;24.50;99.90
2729;DHT22;1372;47.956;7.830;2023-05-29T12:12:38;24.60;99.90
2729;DHT22;1372;47.956;7.830;2023-05-29T12:15:10;24.70;99.90
2729;DHT22;1372;47.956;7.830;2023-05-29T12:17:41;24.70;99.90
2729;DHT22;1372;47.956;7.830;2023-05-29T12:20:11;24.60;99.90
2729;DHT22;1372;47.956;7.830;2023-05-29T12:22:43;24.50;99.90
2729;DHT22;1372;47.956;7.830;2023-05-29T12:25:13;24.60;99.90
2729;DHT22;1372;47.956;7.830;2023-05-29T12:27:44;24.90;99.90
2729;DHT22;1372;47.956;7.830;2023-05-29T12:30:21;25.00;99.90
2729;DHT22;1372;47.956;7.830;2023-05-29T12:32:59;25.20;99.90
2729;DHT22;1372;47.956;7.830;2023-05-29T12:35:29;25.00;99.90
2729;DHT22;1372;47.956;7.830;2023-05-29T12:38:02;24.70;99.90
2729;DHT22;1372;47.956;7.830;2023-05-29T12:40:38;24.60;99.90
2729;DHT22;1372;47.956;7.830;2023-05-29T12:43:08;24.70;99.90
2729;DHT22;1372;47.956;7.830;2023-05-29T12:45:38;25.00;99.90
2729;DHT22;1372;47.956;7.830;2023-05-29T12:48:07;25.20;99.90
2729;DHT22;1372;47.956;7.830;2023-05-29T12:50:38;25.30;99.90
2729;DHT22;1372;47.956;7.830;2023-05-29T12:53:08;25.30;99.90
2729;DHT22;1372;47.956;7.830;2023-05-29T12:55:39;25.40;99.90
2729;DHT22;1372;47.956;7.830;2023-05-29T12:58:11;25.60;99.90
2729;DHT22;1372;47.956;7.830;2023-05-29T13:00:43;25.80;99.90
2729;DHT22;1372;47.956;7.830;2023-05-29T13:03:14;25.70;99.90
2729;DHT22;1372;47.956;7.830;2023-05-29T13:05:43;25.40;99.90
2729;DHT22;1372;47.956;7.830;2023-05-29T13:08:15;25.50;99.90
2729;DHT22;1372;47.956;7.830;2023-05-29T13:10:44;25.80;99.90
2729;DHT22;1372;47.956;7.830;2023-05-29T13:13:13;26.00;99.90
2729;DHT22;1372;47.956;7.830;2023-05-29T13:15:43;26.20;99.90
2729;DHT22;1372;47.956;7.830;2023-05-29T13:18:13;26.50;99.90
2729;DHT22;1372;47.956;7.830;2023-05-29T13:20:44;26.50;99.90
2729;DHT22;1372;47.956;7.830;2023-05-29T13:23:13;26.60;99.90
2729;DHT22;1372;47.956;7.830;2023-05-29T13:25:42;26.70;99.90
2729;DHT22;1372;47.956;7.830;2023-05-29T13:28:11;26.80;99.90
2729;DHT22;1372;47.956;7.830;2023-05-29T13:30:40;26.90;99.90
2729;DHT22;1372;47.956;7.830;2023-05-29T13:33:12;26.90;99.90
2729;DHT22;1372;47.956;7.830;2023-05-29T13:35:43;27.00;99.90
2729;DHT22;1372;47.956;7.830;2023-05-29T13:38:12;26.90;99.90
2729;DHT22;1372;47.956;7.830;2023-05-29T13:40:59;27.00;99.90
2729;DHT22;1372;47.956;7.830;2023-05-29T13:43:30;27.00;99.90
2729;DHT22;1372;47.956;7.830;2023-05-29T13:46:18;27.10;99.90
2729;DHT22;1372;47.956;7.830;2023-05-29T13:48:48;26.90;99.90
2729;DHT22;1372;47.956;7.830;2023-05-29T13:51:17;26.90;99.90
2729;DHT22;1372;47.956;7.830;2023-05-29T13:53:46;26.90;99.90
2729;DHT22;1372;47.956;7.830;2023-05-29T13:56:15;27.00;99.90
2729;DHT22;1372;47.956;7.830;2023-05-29T13:58:44;27.10;99.90
2729;DHT22;1372;47.956;7.830;2023-05-29T14:01:15;27.30;99.90
2729;DHT22;1372;47.956;7.830;2023-05-29T14:03:47;27.50;99.90
2729;DHT22;1372;47.956;7.830;2023-05-29T14:06:17;27.50;99.90
2729;DHT22;1372;47.956;7.830;2023-05-29T14:08:46;27.60;99.90
2729;DHT22;1372;47.956;7.830;2023-05-29T14:11:15;27.50;99.90
2729;DHT22;1372;47.956;7.830;2023-05-29T14:13:44;27.60;99.90
2729;DHT22;1372;47.956;7.830;2023-05-29T14:16:13;27.60;99.90
2729;DHT22;1372;47.956;7.830;2023-05-29T14:18:43;27.80;99.90
2729;DHT22;1372;47.956;7.830;2023-05-29T14:21:13;27.80;99.90
2729;DHT22;1372;47.956;7.830;2023-05-29T14:23:42;27.50;99.90
2729;DHT22;1372;47.956;7.830;2023-05-29T14:26:11;27.20;99.90
2729;DHT22;1372;47.956;7.830;2023-05-29T14:28:40;27.20;99.90
2729;DHT22;1372;47.956;7.830;2023-05-29T14:31:09;27.40;99.90
2729;DHT22;1372;47.956;7.830;2023-05-29T14:33:38;27.50;99.90
2729;DHT22;1372;47.956;7.830;2023-05-29T14:36:07;27.60;99.90
2729;DHT22;1372;47.956;7.830;2023-05-29T14:38:38;27.50;99.90
2729;DHT22;1372;47.956;7.830;2023-05-29T14:41:07;27.50;99.90
2729;DHT22;1372;47.956;7.830;2023-05-29T14:43:38;27.50;99.90
2729;DHT22;1372;47.956;7.830;2023-05-29T14:46:07;27.50;99.90
2729;DHT22;1372;47.956;7.830;2023-05-29T14:48:36;27.60;99.90
2729;DHT22;1372;47.956;7.830;2023-05-29T14:51:05;27.60;99.90
2729;DHT22;1372;47.956;7.830;2023-05-29T14:53:35;27.60;99.90
2729;DHT22;1372;47.956;7.830;2023-05-29T14:56:06;27.80;99.90
2729;DHT22;1372;47.956;7.830;2023-05-29T14:58:35;27.90;99.90
2729;DHT22;1372;47.956;7.830;2023-05-29T15:01:04;27.90;99.90
2729;DHT22;1372;47.956;7.830;2023-05-29T15:03:33;27.90;99.90
2729;DHT22;1372;47.956;7.830;2023-05-29T15:06:03;27.90;99.90
2729;DHT22;1372;47.956;7.830;2023-05-29T15:08:34;27.80;99.90
2729;DHT22;1372;47.956;7.830;2023-05-29T15:11:05;27.80;99.90
2729;DHT22;1372;47.956;7.830;2023-05-29T15:13:35;27.90;99.90
2729;DHT22;1372;47.956;7.830;2023-05-29T15:16:04;27.90;99.90
2729;DHT22;1372;47.956;7.830;2023-05-29T15:18:34;27.90;99.90
2729;DHT22;1372;47.956;7.830;2023-05-29T15:21:06;28.00;99.90
2729;DHT22;1372;47.956;7.830;2023-05-29T15:23:35;27.90;99.90
2729;DHT22;1372;47.956;7.830;2023-05-29T15:26:08;27.90;99.90
2729;DHT22;1372;47.956;7.830;2023-05-29T15:28:38;27.90;99.90
2729;DHT22;1372;47.956;7.830;2023-05-29T15:31:09;27.90;99.90
2729;DHT22;1372;47.956;7.830;2023-05-29T15:33:38;27.80;99.90
2729;DHT22;1372;47.956;7.830;2023-05-29T15:36:08;27.80;99.90
2729;DHT22;1372;47.956;7.830;2023-05-29T15:38:38;27.80;99.90
2729;DHT22;1372;47.956;7.830;2023-05-29T15:41:10;27.80;99.90
2729;DHT22;1372;47.956;7.830;2023-05-29T15:43:40;27.80;99.90
2729;DHT22;1372;47.956;7.830;2023-05-29T15:46:11;27.80;99.90
2729;DHT22;1372;47.956;7.830;2023-05-29T15:48:40;27.70;99.90
2729;DHT22;1372;47.956;7.830;2023-05-29T15:51:09;27.60;99.50
2729;DHT22;1372;47.956;7.830;2023-05-29T15:53:38;27.80;99.90
2729;DHT22;1372;47.956;7.830;2023-05-29T15:56:06;27.70;99.20
2729;DHT22;1372;47.956;7.830;2023-05-29T15:58:39;27.60;98.90
2729;DHT22;1372;47.956;7.830;2023-05-29T16:01:07;27.60;99.90
2729;DHT22;1372;47.956;7.830;2023-05-29T16:03:38;27.60;99.90
2729;DHT22;1372;47.956;7.830;2023-05-29T16:06:07;27.60;99.90
2729;DHT22;1372;47.956;7.830;2023-05-29T16:08:36;27.50;99.90
2729;DHT22;1372;47.956;7.830;2023-05-29T16:11:07;27.50;99.90
2729;DHT22;1372;47.956;7.830;2023-05-29T16:13:37;27.50;99.00
2729;DHT22;1372;47.956;7.830;2023-05-29T16:16:08;27.50;99.90
2729;DHT22;1372;47.956;7.830;2023-05-29T16:18:40;27.50;99.90
2729;DHT22;1372;47.956;7.830;2023-05-29T16:21:09;27.40;99.90
2729;DHT22;1372;47.956;7.830;2023-05-29T16:23:38;27.40;99.90
2729;DHT22;1372;47.956;7.830;2023-05-29T16:26:07;27.40;99.90
2729;DHT22;1372;47.956;7.830;2023-05-29T16:28:37;27.30;99.90